Time;durP1;ratioP1;P1;durP2;ratioP2;P2;SDS_P1;SDS_P2;PMS_P1;PMS_P2;Temp;Humidity;BMP_temperature;BMP_pressure;BME280_temperature;BME280_humidity;BME280_pressure;Samples;Min_cycle;Max_cycle;Signal;HPM_P1;HPM_P2
2021/12/17 00:05:11;;;;;;;24.23;15.65;;;;;;;;;;5113803;28;20266;-68
2021/12/17 00:07:39;;;;;;;20.63;14.65;;;;;;;;;;5124645;28;20258;-68
2021/12/17 00:10:08;;;;;;;28.33;15.68;;;;;;;;;;5124166;28;20199;-68
2021/12/17 00:12:35;;;;;;;21.85;15.00;;;;;;;;;;5124684;28;20191;-68
2021/12/17 00:15:02;;;;;;;22.88;13.85;;;;;;;;;;5124497;28;20195;-68
2021/12/17 00:17:32;;;;;;;24.55;15.35;;;;;;;;;;5124316;28;20195;-68
2021/12/17 00:20:42;;;;;;;24.70;14.48;;;;;;;;;;5104346;28;20188;-68
2021/12/17 00:50:53;;;;;;;23.27;13.90;;;;;;;;;;5123925;28;20452;-68
2021/12/17 00:53:24;;;;;;;19.40;13.35;;;;;;;;;;5124481;28;20416;-68
2021/12/17 00:55:52;;;;;;;21.83;14.27;;;;;;;;;;5123867;28;20183;-68
2021/12/17 00:58:18;;;;;;;21.23;14.15;;;;;;;;;;5123585;28;20206;-68
2021/12/17 01:00:46;;;;;;;24.48;15.68;;;;;;;;;;5123827;28;20191;-68
2021/12/17 01:03:13;;;;;;;23.75;14.57;;;;;;;;;;5124203;28;20366;-68
2021/12/17 01:05:39;;;;;;;18.65;13.73;;;;;;;;;;5123666;28;20244;-68
2021/12/17 01:08:06;;;;;;;23.35;14.15;;;;;;;;;;5123990;28;20195;-68
2021/12/17 01:10:34;;;;;;;21.83;14.20;;;;;;;;;;5123744;28;20599;-68
2021/12/17 01:13:02;;;;;;;20.20;14.73;;;;;;;;;;5123994;28;20386;-68
2021/12/17 01:15:29;;;;;;;21.33;14.13;;;;;;;;;;5123839;28;20230;-68
2021/12/17 01:18:01;;;;;;;21.63;14.10;;;;;;;;;;5123827;28;20195;-68
2021/12/17 01:20:47;;;;;;;18.63;13.80;;;;;;;;;;5122949;28;20182;-68
2021/12/17 01:23:33;;;;;;;18.17;12.57;;;;;;;;;;5123872;28;20183;-67
2021/12/17 01:37:47;;;;;;;16.83;13.38;;;;;;;;;;5109405;28;20422;-67
2021/12/17 01:42:51;;;;;;;17.73;13.13;;;;;;;;;;5063881;28;20193;-68
2021/12/17 01:45:18;;;;;;;20.73;13.75;;;;;;;;;;5102796;28;20345;-68
2021/12/17 01:47:45;;;;;;;19.65;14.27;;;;;;;;;;5114315;28;20199;-68
2021/12/17 01:55:48;;;;;;;23.05;14.75;;;;;;;;;;5122859;28;20221;-68
2021/12/17 02:01:05;;;;;;;20.25;14.05;;;;;;;;;;5122735;28;20222;-68
2021/12/17 02:03:32;;;;;;;23.70;13.50;;;;;;;;;;5124124;28;20251;-69
2021/12/17 02:05:59;;;;;;;18.88;13.52;;;;;;;;;;5123758;28;20211;-69
2021/12/17 02:08:26;;;;;;;17.65;13.35;;;;;;;;;;5124049;28;20202;-69
2021/12/17 02:30:44;;;;;;;18.48;14.10;;;;;;;;;;5122462;28;20226;-68
2021/12/17 02:33:11;;;;;;;19.92;13.70;;;;;;;;;;5125378;28;20364;-68
2021/12/17 02:35:41;;;;;;;19.50;13.73;;;;;;;;;;5126578;28;20222;-68
2021/12/17 02:38:10;;;;;;;20.23;14.35;;;;;;;;;;5126581;28;20198;-68
2021/12/17 02:46:05;;;;;;;21.90;15.05;;;;;;;;;;5126291;28;20217;-68
2021/12/17 02:48:32;;;;;;;15.93;12.85;;;;;;;;;;5126752;28;20195;-68
2021/12/17 02:50:59;;;;;;;18.63;13.38;;;;;;;;;;5126527;28;20560;-68
2021/12/17 02:53:28;;;;;;;18.98;13.75;;;;;;;;;;5126579;28;20252;-68
2021/12/17 02:55:56;;;;;;;20.60;13.95;;;;;;;;;;5126384;28;20195;-68
2021/12/17 02:58:24;;;;;;;19.83;13.38;;;;;;;;;;5126232;28;20210;-68
2021/12/17 03:00:51;;;;;;;18.05;13.63;;;;;;;;;;5126114;28;20250;-68
2021/12/17 03:03:18;;;;;;;20.58;14.70;;;;;;;;;;5126244;28;20393;-68
2021/12/17 03:05:45;;;;;;;18.50;13.93;;;;;;;;;;5126753;28;20195;-68
2021/12/17 03:08:15;;;;;;;20.83;13.75;;;;;;;;;;5127037;28;20236;-68
2021/12/17 03:10:43;;;;;;;17.88;13.48;;;;;;;;;;5126802;28;20541;-68
2021/12/17 03:13:11;;;;;;;18.90;13.55;;;;;;;;;;5127474;28;20199;-69
2021/12/17 03:15:42;;;;;;;17.13;13.60;;;;;;;;;;5126419;28;20568;-67
2021/12/17 03:23:46;;;;;;;18.88;13.48;;;;;;;;;;5125976;28;20414;-66
2021/12/17 03:26:14;;;;;;;23.25;14.27;;;;;;;;;;5125870;28;20205;-68
2021/12/17 03:28:42;;;;;;;18.45;13.60;;;;;;;;;;5126555;27;20195;-68
2021/12/17 03:31:09;;;;;;;19.65;14.05;;;;;;;;;;5126590;28;20506;-68
2021/12/17 03:33:35;;;;;;;18.20;13.73;;;;;;;;;;5126656;28;20195;-68
2021/12/17 03:36:02;;;;;;;21.30;14.23;;;;;;;;;;5126795;28;20202;-68
2021/12/17 03:38:30;;;;;;;22.48;14.48;;;;;;;;;;5125580;28;20240;-66
2021/12/17 03:41:10;;;;;;;21.42;14.05;;;;;;;;;;5125493;28;20210;-66
2021/12/17 03:43:37;;;;;;;20.13;13.55;;;;;;;;;;5124664;28;20202;-66
2021/12/17 03:46:04;;;;;;;17.35;13.65;;;;;;;;;;5125086;28;20219;-66
2021/12/17 03:48:33;;;;;;;19.63;13.30;;;;;;;;;;5125345;28;20195;-66
2021/12/17 03:50:59;;;;;;;20.17;13.75;;;;;;;;;;5125387;28;20219;-66
2021/12/17 03:53:25;;;;;;;19.23;13.10;;;;;;;;;;5125092;28;20199;-66
2021/12/17 03:55:52;;;;;;;20.05;13.18;;;;;;;;;;5125060;28;20202;-66
2021/12/17 03:58:19;;;;;;;17.52;13.43;;;;;;;;;;5125456;28;20333;-66
2021/12/17 04:00:47;;;;;;;20.23;13.38;;;;;;;;;;5125340;28;20510;-66
2021/12/17 04:03:13;;;;;;;20.95;14.40;;;;;;;;;;5125156;28;20357;-66
2021/12/17 04:05:41;;;;;;;20.67;14.30;;;;;;;;;;5124810;28;20203;-66
2021/12/17 04:08:07;;;;;;;20.20;14.60;;;;;;;;;;5125302;28;20195;-66
2021/12/17 04:10:41;;;;;;;21.23;15.32;;;;;;;;;;5124924;28;20219;-66
2021/12/17 04:13:24;;;;;;;23.63;16.83;;;;;;;;;;5124807;28;20203;-68
2021/12/17 04:15:56;;;;;;;20.48;15.48;;;;;;;;;;5124857;28;20202;-68
2021/12/17 04:18:23;;;;;;;23.00;14.98;;;;;;;;;;5125129;28;20369;-68
2021/12/17 04:20:49;;;;;;;18.27;13.80;;;;;;;;;;5125064;28;20402;-68
2021/12/17 04:23:16;;;;;;;19.08;14.15;;;;;;;;;;5124667;28;20195;-66
2021/12/17 04:25:42;;;;;;;18.80;14.38;;;;;;;;;;5124658;28;20464;-66
2021/12/17 04:28:09;;;;;;;21.50;14.35;;;;;;;;;;5124379;28;20198;-66
2021/12/17 04:30:37;;;;;;;20.20;13.27;;;;;;;;;;5124740;28;20264;-66
2021/12/17 04:33:06;;;;;;;21.75;14.23;;;;;;;;;;5124650;28;20213;-67
2021/12/17 04:35:32;;;;;;;19.75;13.38;;;;;;;;;;5124508;28;20195;-66
2021/12/17 04:37:59;;;;;;;20.00;14.02;;;;;;;;;;5124617;28;20236;-66
2021/12/17 04:40:27;;;;;;;24.05;14.70;;;;;;;;;;5124459;28;20221;-66
2021/12/17 04:43:00;;;;;;;18.95;14.32;;;;;;;;;;5124365;28;20191;-66
2021/12/17 04:45:27;;;;;;;18.42;13.27;;;;;;;;;;5123883;28;20255;-66
2021/12/17 04:58:51;;;;;;;20.55;14.25;;;;;;;;;;5125513;28;20548;-68
2021/12/17 05:01:18;;;;;;;20.38;14.20;;;;;;;;;;5124594;28;20416;-66
2021/12/17 05:03:44;;;;;;;18.58;13.70;;;;;;;;;;5123859;28;20217;-66
2021/12/17 05:06:12;;;;;;;22.48;14.68;;;;;;;;;;5123904;28;20390;-66
2021/12/17 05:08:38;;;;;;;19.92;14.95;;;;;;;;;;5123929;28;20209;-66
2021/12/17 05:11:25;;;;;;;27.10;14.85;;;;;;;;;;5123972;28;20271;-68
2021/12/17 05:19:28;;;;;;;22.70;15.68;;;;;;;;;;5124870;28;20295;-68
2021/12/17 05:21:56;;;;;;;27.85;15.73;;;;;;;;;;5124552;28;20211;-69
2021/12/17 05:24:23;;;;;;;26.45;16.02;;;;;;;;;;5124919;28;20521;-68
2021/12/17 05:26:49;;;;;;;22.45;15.63;;;;;;;;;;5124388;28;20202;-68
2021/12/17 05:29:16;;;;;;;19.73;13.90;;;;;;;;;;5124608;28;20203;-69
2021/12/17 05:31:48;;;;;;;26.40;15.35;;;;;;;;;;5123819;28;20226;-68
2021/12/17 05:34:15;;;;;;;58.60;33.80;;;;;;;;;;5123230;28;20210;-68
2021/12/17 05:36:41;;;;;;;34.38;24.30;;;;;;;;;;5123298;28;20195;-68
2021/12/17 05:39:09;;;;;;;33.67;21.90;;;;;;;;;;5117602;27;20214;-68
2021/12/17 05:41:36;;;;;;;35.47;17.23;;;;;;;;;;5117206;28;20195;-68
2021/12/17 05:44:02;;;;;;;25.38;16.70;;;;;;;;;;5122134;27;20525;-68
2021/12/17 05:46:48;;;;;;;27.55;16.60;;;;;;;;;;5121642;28;20261;-68
2021/12/17 05:49:15;;;;;;;26.45;15.90;;;;;;;;;;5120476;28;20210;-67
2021/12/17 05:51:41;;;;;;;23.33;14.98;;;;;;;;;;5120186;28;20535;-68
2021/12/17 05:54:09;;;;;;;20.45;14.43;;;;;;;;;;5119542;28;20203;-68
2021/12/17 05:56:35;;;;;;;19.92;14.95;;;;;;;;;;5119968;28;20206;-65
2021/12/17 05:59:02;;;;;;;21.95;14.57;;;;;;;;;;5128334;27;20217;-66
2021/12/17 06:01:28;;;;;;;23.08;14.82;;;;;;;;;;5141141;27;20379;-65
2021/12/17 06:03:54;;;;;;;24.05;15.05;;;;;;;;;;5123482;28;20228;-66
2021/12/17 06:06:28;;;;;;;21.45;13.82;;;;;;;;;;5121942;28;20191;-66
2021/12/17 06:08:54;;;;;;;20.63;13.77;;;;;;;;;;5122900;28;20195;-66
2021/12/17 06:11:22;;;;;;;17.63;13.60;;;;;;;;;;5122897;28;20215;-66
2021/12/17 06:13:49;;;;;;;20.92;14.02;;;;;;;;;;5121311;28;20202;-65
2021/12/17 06:16:16;;;;;;;20.65;13.88;;;;;;;;;;5122460;28;20518;-66
2021/12/17 06:18:42;;;;;;;21.23;14.13;;;;;;;;;;5122662;28;20263;-66
2021/12/17 06:21:08;;;;;;;18.58;13.27;;;;;;;;;;5122861;28;20191;-66
2021/12/17 06:23:35;;;;;;;21.77;14.18;;;;;;;;;;5122267;28;20518;-67
2021/12/17 06:26:01;;;;;;;18.98;13.30;;;;;;;;;;5123868;28;20179;-67
2021/12/17 06:28:29;;;;;;;21.15;14.23;;;;;;;;;;5124038;28;20262;-68
2021/12/17 06:30:56;;;;;;;20.73;14.02;;;;;;;;;;5124206;28;20222;-68
2021/12/17 06:33:22;;;;;;;21.05;14.23;;;;;;;;;;5124627;28;20348;-68
2021/12/17 06:35:48;;;;;;;16.98;13.00;;;;;;;;;;5123076;28;20202;-68
2021/12/17 06:38:15;;;;;;;19.88;14.05;;;;;;;;;;5103521;28;20203;-68
2021/12/17 06:40:41;;;;;;;23.05;14.75;;;;;;;;;;5114713;28;20213;-68
2021/12/17 06:43:08;;;;;;;23.85;14.45;;;;;;;;;;5123922;28;20188;-68
2021/12/17 06:45:47;;;;;;;21.33;14.10;;;;;;;;;;5124672;28;20218;-68
2021/12/17 06:48:14;;;;;;;22.40;13.63;;;;;;;;;;5123678;28;20228;-69
2021/12/17 06:59:03;;;;;;;18.75;13.30;;;;;;;;;;5122364;28;20206;-67
2021/12/17 07:08:00;;;;;;;18.70;13.50;;;;;;;;;;5122310;28;20270;-67
2021/12/17 07:10:16;;;;;;;19.45;13.65;;;;;;;;;;5122175;28;20198;-67
2021/12/17 07:18:55;;;;;;;23.13;12.88;;;;;;;;;;5121949;28;20187;-67
2021/12/17 07:35:25;;;;;;;15.45;11.95;;;;;;;;;;5125525;28;20198;-67
2021/12/17 07:40:37;;;;;;;22.63;14.00;;;;;;;;;;5105305;28;20373;-67
2021/12/17 07:43:10;;;;;;;18.98;13.15;;;;;;;;;;5105007;28;20241;-67
2021/12/17 07:45:37;;;;;;;17.60;13.10;;;;;;;;;;5104750;28;20216;-67
2021/12/17 07:48:03;;;;;;;17.20;12.85;;;;;;;;;;5106130;28;20203;-67
2021/12/17 07:50:31;;;;;;;16.30;12.65;;;;;;;;;;5125170;28;20226;-67
2021/12/17 07:52:57;;;;;;;21.95;13.60;;;;;;;;;;5124662;28;20195;-67
2021/12/17 07:55:24;;;;;;;16.20;12.15;;;;;;;;;;5125403;28;20195;-67
2021/12/17 07:57:50;;;;;;;17.15;10.40;;;;;;;;;;5125300;28;20226;-67
2021/12/17 08:00:17;;;;;;;14.57;8.68;;;;;;;;;;5125444;28;20202;-67
2021/12/17 08:02:43;;;;;;;10.70;8.60;;;;;;;;;;5124983;28;20187;-67
2021/12/17 08:05:10;;;;;;;10.43;8.38;;;;;;;;;;5124970;28;20191;-67
2021/12/17 08:07:38;;;;;;;11.15;8.07;;;;;;;;;;5125016;28;20202;-67
2021/12/17 08:10:04;;;;;;;9.13;7.97;;;;;;;;;;5124881;28;20195;-67
2021/12/17 08:12:31;;;;;;;7.60;6.82;;;;;;;;;;5124929;28;20540;-68
2021/12/17 08:14:57;;;;;;;7.50;6.68;;;;;;;;;;5124795;28;20195;-68
2021/12/17 08:17:42;;;;;;;6.90;6.30;;;;;;;;;;5125625;28;20201;-68
2021/12/17 08:26:00;;;;;;;7.25;6.40;;;;;;;;;;5125325;28;20201;-67
2021/12/17 08:28:28;;;;;;;7.75;6.65;;;;;;;;;;5124940;28;20518;-67
2021/12/17 08:30:55;;;;;;;6.50;5.97;;;;;;;;;;5124744;28;20269;-68
2021/12/17 08:33:22;;;;;;;7.13;6.43;;;;;;;;;;5125456;28;20198;-68
2021/12/17 08:35:48;;;;;;;6.63;6.05;;;;;;;;;;5125711;28;20373;-68
2021/12/17 08:38:18;;;;;;;6.53;5.93;;;;;;;;;;5125380;28;20195;-68
2021/12/17 08:40:44;;;;;;;6.85;5.88;;;;;;;;;;5125149;28;20202;-68
2021/12/17 08:43:11;;;;;;;8.30;7.50;;;;;;;;;;5125292;28;20384;-68
2021/12/17 08:45:37;;;;;;;10.65;9.35;;;;;;;;;;5125166;28;20215;-68
2021/12/17 08:48:04;;;;;;;9.63;8.63;;;;;;;;;;5125039;28;20195;-68
2021/12/17 08:50:30;;;;;;;9.20;8.07;;;;;;;;;;5124827;28;20195;-68
2021/12/17 08:52:56;;;;;;;10.23;9.15;;;;;;;;;;5124613;28;20194;-68
2021/12/17 08:55:24;;;;;;;8.50;7.70;;;;;;;;;;5124618;28;20195;-68
2021/12/17 08:57:51;;;;;;;8.70;7.85;;;;;;;;;;5124845;28;20203;-68
2021/12/17 09:00:17;;;;;;;8.30;7.50;;;;;;;;;;5124648;28;20373;-68
2021/12/17 09:02:43;;;;;;;7.90;7.10;;;;;;;;;;5124812;27;20202;-68
2021/12/17 09:05:11;;;;;;;8.60;7.78;;;;;;;;;;5124297;28;20210;-68
2021/12/17 09:07:37;;;;;;;7.22;6.63;;;;;;;;;;5124967;28;20440;-68
2021/12/17 09:10:06;;;;;;;8.43;6.90;;;;;;;;;;5124567;28;20203;-68
2021/12/17 09:12:36;;;;;;;9.63;7.40;;;;;;;;;;5124680;28;20215;-69
2021/12/17 09:15:02;;;;;;;9.73;6.82;;;;;;;;;;5103995;28;20187;-69
2021/12/17 09:17:28;;;;;;;7.95;7.05;;;;;;;;;;5104101;28;20512;-69
2021/12/17 09:19:55;;;;;;;8.20;7.38;;;;;;;;;;5103837;28;20202;-69
2021/12/17 09:22:21;;;;;;;8.23;7.22;;;;;;;;;;5122682;28;20187;-69
2021/12/17 09:24:48;;;;;;;7.53;6.90;;;;;;;;;;5124028;28;20194;-69
2021/12/17 09:27:14;;;;;;;8.05;7.32;;;;;;;;;;5124250;28;20195;-69
2021/12/17 09:29:42;;;;;;;7.85;7.15;;;;;;;;;;5123948;28;20195;-69
2021/12/17 09:32:08;;;;;;;8.85;7.03;;;;;;;;;;5123232;28;20214;-69
2021/12/17 09:34:35;;;;;;;8.02;7.03;;;;;;;;;;5123963;28;20195;-69
2021/12/17 09:37:01;;;;;;;9.27;7.30;;;;;;;;;;5123677;28;20198;-69
2021/12/17 09:39:28;;;;;;;8.05;7.30;;;;;;;;;;5124137;28;20202;-69
2021/12/17 09:41:55;;;;;;;7.25;6.55;;;;;;;;;;5123531;28;20191;-69
2021/12/17 09:44:22;;;;;;;7.00;6.43;;;;;;;;;;5124174;28;20232;-69
2021/12/17 09:46:49;;;;;;;6.50;6.00;;;;;;;;;;5123760;28;20191;-69
2021/12/17 09:49:17;;;;;;;9.50;6.38;;;;;;;;;;5123616;28;20195;-69
2021/12/17 09:51:43;;;;;;;7.13;6.43;;;;;;;;;;5123430;28;20222;-69
2021/12/17 09:54:11;;;;;;;7.18;6.57;;;;;;;;;;5123392;28;20509;-69
2021/12/17 09:56:37;;;;;;;6.57;6.03;;;;;;;;;;5123278;28;20195;-69
2021/12/17 09:59:04;;;;;;;6.57;5.93;;;;;;;;;;5122497;28;20553;-69
2021/12/17 10:01:30;;;;;;;6.28;5.75;;;;;;;;;;5122682;28;20217;-69
2021/12/17 10:04:19;;;;;;;9.10;6.20;;;;;;;;;;5122710;28;20431;-69
2021/12/17 10:06:46;;;;;;;6.82;6.20;;;;;;;;;;5123053;28;20195;-69
2021/12/17 10:09:14;;;;;;;6.93;6.22;;;;;;;;;;5122903;28;20206;-69
2021/12/17 10:11:59;;;;;;;7.10;6.50;;;;;;;;;;5122533;27;20291;-69
2021/12/17 10:14:26;;;;;;;7.65;6.95;;;;;;;;;;5122278;28;20183;-69
2021/12/17 10:16:52;;;;;;;7.72;7.03;;;;;;;;;;5122889;28;20202;-69
2021/12/17 10:19:34;;;;;;;10.80;8.05;;;;;;;;;;5122890;28;20384;-69
2021/12/17 10:22:10;;;;;;;7.82;7.03;;;;;;;;;;5121413;28;20195;-69
2021/12/17 10:24:38;;;;;;;7.35;6.60;;;;;;;;;;5122737;28;20187;-68
2021/12/17 10:27:17;;;;;;;9.77;6.65;;;;;;;;;;5122278;28;20191;-68
2021/12/17 10:29:44;;;;;;;8.70;5.93;;;;;;;;;;5122640;28;20191;-67
2021/12/17 10:32:16;;;;;;;7.28;6.63;;;;;;;;;;5122631;28;20214;-67
2021/12/17 10:34:58;;;;;;;8.73;6.60;;;;;;;;;;5122391;28;20183;-67
2021/12/17 10:37:33;;;;;;;7.15;6.50;;;;;;;;;;5122396;28;20183;-54
2021/12/17 10:40:00;;;;;;;7.60;6.90;;;;;;;;;;5121714;28;20244;-54
2021/12/17 10:42:30;;;;;;;6.38;5.88;;;;;;;;;;5121367;28;20187;-53
2021/12/17 10:45:00;;;;;;;9.25;7.15;;;;;;;;;;5121734;28;20298;-53
2021/12/17 10:47:33;;;;;;;9.40;6.60;;;;;;;;;;5122055;28;20264;-53
2021/12/17 10:50:02;;;;;;;8.27;7.32;;;;;;;;;;5122290;28;20191;-53
2021/12/17 10:52:35;;;;;;;7.47;6.70;;;;;;;;;;5121219;28;20379;-54
2021/12/17 10:55:10;;;;;;;8.55;6.35;;;;;;;;;;5116775;28;20210;-55
2021/12/17 10:57:37;;;;;;;7.88;7.07;;;;;;;;;;5119920;28;20206;-55
2021/12/17 11:00:05;;;;;;;9.82;7.05;;;;;;;;;;5121076;27;20530;-54
2021/12/17 11:02:33;;;;;;;7.63;6.93;;;;;;;;;;5119387;28;20232;-54
2021/12/17 11:05:10;;;;;;;6.30;5.80;;;;;;;;;;5117074;28;20282;-57
2021/12/17 11:07:37;;;;;;;6.65;6.05;;;;;;;;;;5118084;27;20203;-53
2021/12/17 11:10:04;;;;;;;6.35;5.82;;;;;;;;;;5122985;28;20203;-54
2021/12/17 11:12:34;;;;;;;6.03;5.43;;;;;;;;;;5123193;28;20214;-56
2021/12/17 11:15:11;;;;;;;6.20;5.53;;;;;;;;;;5123791;27;20495;-54
2021/12/17 11:17:38;;;;;;;5.50;5.00;;;;;;;;;;5115963;28;20507;-54
2021/12/17 11:20:07;;;;;;;6.00;5.40;;;;;;;;;;5123098;28;20202;-56
2021/12/17 11:22:34;;;;;;;4.63;4.32;;;;;;;;;;5123715;27;20199;-54
2021/12/17 11:25:01;;;;;;;5.25;4.75;;;;;;;;;;5127663;27;20195;-55
2021/12/17 11:27:28;;;;;;;4.72;4.43;;;;;;;;;;5127392;27;20199;-54
2021/12/17 11:29:56;;;;;;;4.88;4.57;;;;;;;;;;5123086;28;20552;-53
2021/12/17 11:32:23;;;;;;;5.15;4.60;;;;;;;;;;5123232;28;20408;-55
2021/12/17 11:34:49;;;;;;;5.22;4.32;;;;;;;;;;5122889;28;20203;-54
2021/12/17 11:37:16;;;;;;;5.13;4.72;;;;;;;;;;5123365;28;20191;-58
2021/12/17 11:39:44;;;;;;;4.18;3.88;;;;;;;;;;5123200;28;20195;-54
2021/12/17 11:42:25;;;;;;;6.90;4.65;;;;;;;;;;5122831;28;20199;-55
2021/12/17 11:44:54;;;;;;;4.57;4.28;;;;;;;;;;5122773;28;20231;-54
2021/12/17 11:47:33;;;;;;;5.28;4.78;;;;;;;;;;5122622;27;20266;-54
2021/12/17 11:50:04;;;;;;;4.72;4.32;;;;;;;;;;5126598;27;20203;-55
2021/12/17 11:52:40;;;;;;;8.63;5.13;;;;;;;;;;5121560;28;20211;-54
2021/12/17 11:55:21;;;;;;;6.25;5.10;;;;;;;;;;5122542;28;20203;-54
2021/12/17 11:57:48;;;;;;;5.35;4.85;;;;;;;;;;5120186;28;20211;-54
2021/12/17 12:00:15;;;;;;;5.05;4.65;;;;;;;;;;5122548;28;20236;-56
2021/12/17 12:02:49;;;;;;;6.05;5.50;;;;;;;;;;5122458;28;20514;-54
2021/12/17 12:05:33;;;;;;;7.55;5.88;;;;;;;;;;5121401;27;20199;-55
2021/12/17 12:08:22;;;;;;;6.72;4.93;;;;;;;;;;5121707;27;20199;-53
2021/12/17 12:11:02;;;;;;;8.95;5.10;;;;;;;;;;5121718;28;20301;-54
2021/12/17 12:13:33;;;;;;;5.50;4.75;;;;;;;;;;5122142;28;20226;-53
2021/12/17 12:16:03;;;;;;;5.50;5.10;;;;;;;;;;5120859;28;20191;-54
2021/12/17 12:18:40;;;;;;;4.50;4.20;;;;;;;;;;5120818;27;20223;-55
2021/12/17 12:21:07;;;;;;;5.68;4.47;;;;;;;;;;5121586;28;20225;-53
2021/12/17 12:23:42;;;;;;;5.03;4.63;;;;;;;;;;5122001;28;20200;-54
2021/12/17 12:26:21;;;;;;;4.35;4.05;;;;;;;;;;5121978;28;20194;-58
2021/12/17 12:28:50;;;;;;;5.95;4.13;;;;;;;;;;5113237;28;20203;-55
2021/12/17 12:31:38;;;;;;;4.03;3.83;;;;;;;;;;5115579;28;20244;-54
2021/12/17 12:34:10;;;;;;;3.88;3.55;;;;;;;;;;5122114;28;20180;-53
2021/12/17 12:36:48;;;;;;;6.03;3.72;;;;;;;;;;5121649;27;20202;-55
2021/12/17 12:39:15;;;;;;;4.95;4.28;;;;;;;;;;5121636;27;20186;-54
2021/12/17 12:41:45;;;;;;;4.47;4.15;;;;;;;;;;5121851;28;20198;-55
2021/12/17 12:44:12;;;;;;;6.70;4.20;;;;;;;;;;5120291;28;20568;-54
2021/12/17 12:46:51;;;;;;;5.50;5.10;;;;;;;;;;5121167;28;20223;-54
2021/12/17 12:49:36;;;;;;;5.88;4.63;;;;;;;;;;5135327;27;20198;-53
2021/12/17 12:52:16;;;;;;;4.65;4.25;;;;;;;;;;5125918;27;20316;-54
2021/12/17 12:54:42;;;;;;;4.55;4.35;;;;;;;;;;5121574;28;20203;-54
2021/12/17 12:57:09;;;;;;;5.35;4.38;;;;;;;;;;5121721;28;20214;-55
2021/12/17 12:59:36;;;;;;;4.80;4.47;;;;;;;;;;5121309;28;20210;-54
2021/12/17 13:02:02;;;;;;;5.20;4.70;;;;;;;;;;5123690;28;20202;-60
2021/12/17 13:04:30;;;;;;;4.45;4.05;;;;;;;;;;5123016;28;20202;-61
2021/12/17 13:06:57;;;;;;;4.88;4.47;;;;;;;;;;5124293;28;20191;-59
2021/12/17 13:09:30;;;;;;;5.93;4.53;;;;;;;;;;5125451;28;20194;-59
2021/12/17 13:11:56;;;;;;;5.65;4.88;;;;;;;;;;5125613;28;20209;-59
2021/12/17 13:14:26;;;;;;;4.97;4.57;;;;;;;;;;5124927;28;20188;-59
2021/12/17 13:17:16;;;;;;;5.28;4.90;;;;;;;;;;5122599;28;20195;-59
2021/12/17 13:22:52;;;;;;;4.72;4.28;;;;;;;;;;5124350;28;20213;-59
2021/12/17 13:25:25;;;;;;;7.00;4.95;;;;;;;;;;5124951;28;20202;-59
2021/12/17 13:27:55;;;;;;;5.28;4.88;;;;;;;;;;5125679;28;20179;-59
2021/12/17 13:30:24;;;;;;;5.57;5.18;;;;;;;;;;5125679;28;20195;-58
2021/12/17 13:32:51;;;;;;;5.18;4.65;;;;;;;;;;5125420;28;20225;-60
2021/12/17 13:35:18;;;;;;;5.88;4.85;;;;;;;;;;5125026;28;20203;-59
2021/12/17 13:37:44;;;;;;;4.97;4.55;;;;;;;;;;5124680;28;20198;-59
2021/12/17 13:40:12;;;;;;;5.10;4.70;;;;;;;;;;5125529;28;20195;-59
2021/12/17 13:42:42;;;;;;;4.13;3.92;;;;;;;;;;5125644;28;20206;-59
2021/12/17 13:45:10;;;;;;;4.97;4.40;;;;;;;;;;5124976;28;20282;-59
2021/12/17 13:47:37;;;;;;;6.32;5.00;;;;;;;;;;5125015;28;20503;-59
2021/12/17 13:50:06;;;;;;;7.15;4.68;;;;;;;;;;5124635;28;20199;-59
2021/12/17 13:52:33;;;;;;;5.13;4.80;;;;;;;;;;5124725;28;20213;-59
2021/12/17 13:55:01;;;;;;;5.32;4.82;;;;;;;;;;5124737;28;20202;-58
2021/12/17 13:57:29;;;;;;;4.93;4.53;;;;;;;;;;5124693;28;20357;-58
2021/12/17 14:00:04;;;;;;;5.13;4.72;;;;;;;;;;5124738;28;20195;-59
2021/12/17 14:02:33;;;;;;;4.75;4.35;;;;;;;;;;5124814;28;20201;-59
2021/12/17 14:05:02;;;;;;;5.03;4.63;;;;;;;;;;5124232;28;20199;-58
2021/12/17 14:07:30;;;;;;;4.53;4.22;;;;;;;;;;5125017;28;20201;-59
2021/12/17 14:09:57;;;;;;;5.05;4.57;;;;;;;;;;5124479;28;20194;-58
2021/12/17 14:12:30;;;;;;;4.68;4.28;;;;;;;;;;5123258;28;20211;-59
2021/12/17 14:14:57;;;;;;;4.45;4.15;;;;;;;;;;5124687;28;20195;-59
2021/12/17 14:17:25;;;;;;;4.50;4.20;;;;;;;;;;5124599;28;20195;-59
2021/12/17 14:19:53;;;;;;;4.25;3.95;;;;;;;;;;5124605;28;20195;-59
2021/12/17 14:22:27;;;;;;;4.15;3.88;;;;;;;;;;5125097;28;20198;-58
2021/12/17 14:24:54;;;;;;;4.80;4.50;;;;;;;;;;5124755;28;20190;-59
2021/12/17 14:27:20;;;;;;;4.03;3.72;;;;;;;;;;5125000;28;20202;-59
2021/12/17 14:29:48;;;;;;;4.43;4.13;;;;;;;;;;5128656;28;20195;-58
2021/12/17 14:32:17;;;;;;;4.95;3.90;;;;;;;;;;5128054;28;20195;-59
2021/12/17 14:34:45;;;;;;;3.95;3.75;;;;;;;;;;5128761;28;20228;-59
2021/12/17 14:37:12;;;;;;;3.80;3.60;;;;;;;;;;5128283;28;20196;-59
2021/12/17 14:39:44;;;;;;;3.70;3.50;;;;;;;;;;5128804;28;20286;-59
2021/12/17 14:42:12;;;;;;;5.13;3.78;;;;;;;;;;5128820;28;20455;-59
2021/12/17 14:44:47;;;;;;;5.47;4.88;;;;;;;;;;5127848;28;20214;-57
2021/12/17 14:47:19;;;;;;;5.97;5.47;;;;;;;;;;5128800;28;20261;-58
2021/12/17 15:01:12;;;;;;;6.40;5.90;;;;;;;;;;5128497;28;20247;-57
2021/12/17 15:03:42;;;;;;;5.95;5.45;;;;;;;;;;5128628;28;20349;-58
2021/12/17 15:06:10;;;;;;;5.95;5.40;;;;;;;;;;5128732;28;20195;-57
2021/12/17 15:08:37;;;;;;;6.35;5.75;;;;;;;;;;5129229;28;20195;-57
2021/12/17 15:11:09;;;;;;;5.90;5.40;;;;;;;;;;5128820;28;20191;-58
2021/12/17 15:13:36;;;;;;;6.05;5.55;;;;;;;;;;5128756;28;20219;-58
2021/12/17 15:16:03;;;;;;;5.90;5.40;;;;;;;;;;5128744;28;20195;-58
2021/12/17 15:18:29;;;;;;;6.25;5.63;;;;;;;;;;5128432;28;20262;-59
2021/12/17 15:20:57;;;;;;;6.18;5.68;;;;;;;;;;5128394;28;20199;-59
2021/12/17 15:23:25;;;;;;;6.70;6.10;;;;;;;;;;5128897;28;20214;-58
2021/12/17 15:25:52;;;;;;;6.55;5.95;;;;;;;;;;5128680;28;20191;-58
2021/12/17 15:28:21;;;;;;;6.85;6.25;;;;;;;;;;5120776;28;20523;-58
2021/12/17 15:30:48;;;;;;;7.57;6.80;;;;;;;;;;5124976;28;20393;-58
2021/12/17 15:33:15;;;;;;;8.98;7.18;;;;;;;;;;5129129;27;20522;-59
2021/12/17 15:35:43;;;;;;;7.97;7.03;;;;;;;;;;5146343;27;20202;-60
2021/12/17 15:38:10;;;;;;;7.60;6.82;;;;;;;;;;5126760;27;20203;-60
2021/12/17 15:40:38;;;;;;;9.20;6.85;;;;;;;;;;5125477;27;20199;-58
2021/12/17 15:43:05;;;;;;;7.35;6.65;;;;;;;;;;5128977;28;20195;-58
2021/12/17 15:45:32;;;;;;;8.57;7.05;;;;;;;;;;5121312;28;20223;-59
2021/12/17 15:47:58;;;;;;;8.48;7.70;;;;;;;;;;5119059;28;20441;-70
2021/12/17 15:50:24;;;;;;;7.55;6.93;;;;;;;;;;5121918;28;20209;-69
2021/12/17 15:52:51;;;;;;;7.57;6.88;;;;;;;;;;5123345;28;20215;-69
2021/12/17 15:55:20;;;;;;;7.68;6.97;;;;;;;;;;5124159;28;20226;-69
2021/12/17 15:57:48;;;;;;;9.00;8.10;;;;;;;;;;5125253;27;20211;-69
2021/12/17 16:00:16;;;;;;;9.68;8.77;;;;;;;;;;5144111;27;20212;-70
2021/12/17 16:02:43;;;;;;;7.88;7.18;;;;;;;;;;5144692;27;20347;-70
2021/12/17 16:05:10;;;;;;;7.60;6.90;;;;;;;;;;5144354;27;20206;-69
2021/12/17 16:07:37;;;;;;;10.00;8.85;;;;;;;;;;5124327;27;20207;-69
2021/12/17 16:11:00;;;;;;;8.40;7.43;;;;;;;;;;5116229;28;20266;-69
2021/12/17 16:18:48;;;;;;;9.95;8.63;;;;;;;;;;5122385;28;20201;-68
2021/12/17 16:21:14;;;;;;;9.63;8.63;;;;;;;;;;5122049;28;20201;-68
2021/12/17 16:23:41;;;;;;;10.50;9.50;;;;;;;;;;5122629;28;20230;-68
2021/12/17 16:26:08;;;;;;;10.07;9.07;;;;;;;;;;5121186;28;20293;-68
2021/12/17 16:28:40;;;;;;;10.00;9.00;;;;;;;;;;5121920;28;20206;-68
2021/12/17 16:31:09;;;;;;;10.52;9.15;;;;;;;;;;5122109;28;20274;-67
2021/12/17 16:33:36;;;;;;;9.60;8.70;;;;;;;;;;5121355;28;20542;-66
2021/12/17 16:36:02;;;;;;;13.23;10.15;;;;;;;;;;5133204;27;20229;-66
2021/12/17 16:38:29;;;;;;;11.73;10.35;;;;;;;;;;5138230;27;20247;-67
2021/12/17 16:40:56;;;;;;;11.52;10.40;;;;;;;;;;5142096;27;20210;-67
2021/12/17 16:43:23;;;;;;;13.23;11.38;;;;;;;;;;5141826;27;20394;-66
2021/12/17 16:46:04;;;;;;;13.82;12.18;;;;;;;;;;5139082;27;20254;-66
2021/12/17 16:48:31;;;;;;;14.15;12.15;;;;;;;;;;5121746;28;20183;-67
2021/12/17 16:50:57;;;;;;;12.68;11.38;;;;;;;;;;5123469;28;20427;-66
2021/12/17 16:53:23;;;;;;;11.25;10.15;;;;;;;;;;5124426;28;20246;-68
2021/12/17 16:55:50;;;;;;;10.55;9.48;;;;;;;;;;5124106;28;20199;-69
2021/12/17 16:58:16;;;;;;;10.85;9.77;;;;;;;;;;5123615;28;20431;-69
2021/12/17 17:00:43;;;;;;;11.27;9.93;;;;;;;;;;5124306;28;20188;-69
2021/12/17 17:03:11;;;;;;;10.93;9.82;;;;;;;;;;5124475;28;20218;-69
2021/12/17 17:05:37;;;;;;;12.60;10.13;;;;;;;;;;5124290;27;20199;-69
2021/12/17 17:08:05;;;;;;;10.90;9.80;;;;;;;;;;5124007;28;20206;-66
2021/12/17 17:10:34;;;;;;;11.13;9.95;;;;;;;;;;5123780;28;20286;-66
2021/12/17 17:13:03;;;;;;;15.98;10.23;;;;;;;;;;5123050;28;20191;-66
2021/12/17 17:15:30;;;;;;;11.77;9.85;;;;;;;;;;5123341;28;20199;-66
2021/12/17 17:17:56;;;;;;;11.60;9.70;;;;;;;;;;5123076;28;20202;-66
2021/12/17 17:20:25;;;;;;;9.95;8.95;;;;;;;;;;5123352;28;20206;-66
2021/12/17 17:22:51;;;;;;;10.75;9.07;;;;;;;;;;5122946;28;20235;-66
2021/12/17 17:25:18;;;;;;;12.00;10.68;;;;;;;;;;5123072;28;20217;-66
2021/12/17 17:27:44;;;;;;;12.40;10.43;;;;;;;;;;5123394;28;20198;-66